Time;durP1;ratioP1;P1;durP2;ratioP2;P2;SDS_P1;SDS_P2;PMS_P1;PMS_P2;Temp;Humidity;BMP_temperature;BMP_pressure;BME280_temperature;BME280_humidity;BME280_pressure;Samples;Min_cycle;Max_cycle;Signal;HPM_P1;HPM_P2
2023/08/07 00:00:20;;;;;;;0.00;0.00;;;16.00;99.90;;;;;;5036497;28;20049;-70
2023/08/07 00:02:45;;;;;;;0.00;0.00;;;16.00;99.90;;;;;;5037812;28;20048;-71
2023/08/07 00:05:11;;;;;;;0.00;0.00;;;16.00;99.90;;;;;;5036438;28;20073;-70
2023/08/07 00:07:37;;;;;;;1.13;0.45;;;16.00;99.90;;;;;;5042911;28;20120;-70
2023/08/07 00:10:03;;;;;;;0.00;0.00;;;16.00;99.90;;;;;;5046852;28;20131;-70
2023/08/07 00:12:28;;;;;;;1.75;0.50;;;16.00;99.90;;;;;;5044605;28;20079;-70
2023/08/07 00:14:54;;;;;;;0.00;0.00;;;16.00;99.90;;;;;;5036557;28;20540;-70
2023/08/07 00:17:20;;;;;;;0.55;0.38;;;15.90;99.90;;;;;;5045281;28;20439;-70
2023/08/07 00:19:45;;;;;;;0.10;0.10;;;15.90;99.90;;;;;;5022748;28;20060;-70
2023/08/07 00:22:11;;;;;;;2.13;1.40;;;15.80;99.90;;;;;;5042587;28;20087;-70
2023/08/07 00:24:36;;;;;;;0.00;0.00;;;15.90;99.90;;;;;;5025188;28;20041;-70
2023/08/07 00:27:02;;;;;;;0.00;0.00;;;15.80;99.90;;;;;;5046842;28;20091;-70
2023/08/07 00:29:28;;;;;;;0.00;0.00;;;15.80;99.90;;;;;;5040646;28;20059;-70
2023/08/07 00:31:54;;;;;;;0.00;0.00;;;15.80;99.90;;;;;;5038795;28;20030;-69
2023/08/07 00:34:19;;;;;;;0.00;0.00;;;15.80;99.90;;;;;;5046438;28;20476;-69
2023/08/07 00:36:45;;;;;;;0.40;0.40;;;15.70;99.90;;;;;;5045948;28;20144;-69
2023/08/07 00:39:10;;;;;;;0.10;0.10;;;15.70;99.90;;;;;;5038427;28;20076;-69
2023/08/07 00:41:36;;;;;;;0.70;0.70;;;15.60;99.90;;;;;;5035154;28;20045;-69
2023/08/07 00:44:02;;;;;;;1.73;0.55;;;15.60;99.90;;;;;;5045276;28;20433;-69
2023/08/07 00:46:29;;;;;;;0.05;0.05;;;15.60;99.90;;;;;;5037532;28;20052;-70
2023/08/07 00:48:55;;;;;;;0.32;0.32;;;15.60;99.90;;;;;;5040399;28;20048;-69
2023/08/07 00:51:22;;;;;;;0.00;0.00;;;15.60;99.90;;;;;;5042634;28;20052;-69
2023/08/07 00:53:48;;;;;;;0.10;0.10;;;15.60;99.90;;;;;;5041607;28;20077;-70
2023/08/07 00:56:15;;;;;;;0.00;0.00;;;15.50;99.90;;;;;;5034698;28;20116;-70
2023/08/07 00:58:40;;;;;;;0.00;0.00;;;15.50;99.90;;;;;;5044988;28;20103;-70
2023/08/07 01:01:07;;;;;;;0.22;0.22;;;15.50;99.90;;;;;;5040945;28;20033;-70
2023/08/07 01:03:33;;;;;;;0.00;0.00;;;15.50;99.90;;;;;;5021367;28;20120;-70
2023/08/07 01:05:59;;;;;;;0.00;0.00;;;15.60;99.90;;;;;;5039752;28;20136;-70
2023/08/07 01:08:25;;;;;;;0.30;0.30;;;15.60;99.90;;;;;;5024440;28;20041;-70
2023/08/07 01:11:10;;;;;;;0.55;0.55;;;15.60;99.90;;;;;;5041249;28;20040;-70
2023/08/07 01:14:21;;;;;;;0.00;0.00;;;15.60;99.90;;;;;;5042272;28;20495;-70
2023/08/07 01:17:01;;;;;;;0.10;0.10;;;15.60;99.90;;;;;;5015455;28;20075;-70
2023/08/07 01:19:28;;;;;;;0.00;0.00;;;15.60;99.90;;;;;;5038558;28;20094;-70
2023/08/07 01:22:13;;;;;;;0.20;0.20;;;15.70;99.90;;;;;;5037477;28;20388;-70
2023/08/07 01:24:42;;;;;;;0.00;0.00;;;15.60;99.90;;;;;;5038207;28;20484;-70
2023/08/07 01:27:44;;;;;;;0.00;0.00;;;15.60;99.90;;;;;;5040331;28;20053;-70
2023/08/07 01:30:12;;;;;;;0.00;0.00;;;15.50;99.90;;;;;;4980272;28;20124;-70
2023/08/07 01:33:11;;;;;;;0.00;0.00;;;15.60;99.90;;;;;;5037167;28;20037;-70
2023/08/07 01:35:43;;;;;;;0.10;0.10;;;15.60;99.90;;;;;;5033642;28;20526;-70
2023/08/07 01:38:14;;;;;;;0.10;0.10;;;15.60;99.90;;;;;;5043369;28;20037;-70
2023/08/07 01:40:41;;;;;;;0.00;0.00;;;15.50;99.90;;;;;;5042854;28;20223;-70
2023/08/07 01:43:07;;;;;;;0.00;0.00;;;15.40;99.90;;;;;;5045232;28;20391;-69
2023/08/07 01:45:33;;;;;;;0.15;0.15;;;15.50;99.90;;;;;;5034193;28;20065;-70
2023/08/07 01:47:59;;;;;;;0.10;0.10;;;15.40;99.90;;;;;;5041690;28;20071;-70
2023/08/07 01:50:25;;;;;;;0.08;0.08;;;15.40;99.90;;;;;;5035082;28;20852;-70
2023/08/07 01:52:50;;;;;;;0.00;0.00;;;15.30;99.90;;;;;;5040753;28;20060;-70
2023/08/07 01:55:18;;;;;;;0.03;0.03;;;15.30;99.90;;;;;;5039948;28;20091;-70
2023/08/07 01:57:44;;;;;;;0.00;0.00;;;15.30;99.90;;;;;;5026387;28;20139;-70
2023/08/07 02:00:10;;;;;;;0.00;0.00;;;15.30;99.90;;;;;;5039759;28;20473;-69
2023/08/07 02:02:36;;;;;;;0.10;0.10;;;15.20;99.90;;;;;;5044994;28;20087;-70
2023/08/07 02:05:02;;;;;;;0.30;0.30;;;15.30;99.90;;;;;;5040558;28;20055;-70
2023/08/07 02:07:28;;;;;;;0.00;0.00;;;15.20;99.90;;;;;;5040039;28;20045;-70
2023/08/07 02:09:54;;;;;;;2.90;1.02;;;15.20;99.90;;;;;;5040914;28;20053;-70
2023/08/07 02:12:19;;;;;;;0.52;0.52;;;15.20;99.90;;;;;;5042521;28;20400;-70
2023/08/07 02:14:45;;;;;;;0.00;0.00;;;15.20;99.90;;;;;;5031809;28;20077;-70
2023/08/07 02:17:10;;;;;;;0.00;0.00;;;15.20;99.90;;;;;;5037754;28;20123;-70
2023/08/07 02:19:36;;;;;;;0.73;0.68;;;15.30;99.90;;;;;;5032470;28;20060;-70
2023/08/07 02:22:02;;;;;;;0.00;0.00;;;15.40;99.90;;;;;;5031605;28;20052;-69
2023/08/07 02:24:28;;;;;;;1.55;0.85;;;15.30;99.90;;;;;;5033693;28;20053;-69
2023/08/07 02:26:53;;;;;;;0.00;0.00;;;15.40;99.90;;;;;;5034398;28;20037;-69
2023/08/07 02:29:19;;;;;;;0.00;0.00;;;15.40;99.90;;;;;;5041194;28;20152;-69
2023/08/07 02:31:44;;;;;;;0.00;0.00;;;15.40;99.90;;;;;;5032473;28;20758;-69
2023/08/07 02:34:10;;;;;;;0.00;0.00;;;15.40;99.90;;;;;;5033039;28;20117;-69
2023/08/07 02:36:36;;;;;;;0.00;0.00;;;15.40;99.90;;;;;;5031814;28;20037;-69
2023/08/07 02:39:02;;;;;;;0.00;0.00;;;15.40;99.90;;;;;;5034783;28;20033;-69
2023/08/07 02:41:28;;;;;;;0.00;0.00;;;15.40;99.90;;;;;;5038282;28;20037;-70
2023/08/07 02:43:53;;;;;;;0.00;0.00;;;15.50;99.90;;;;;;5034292;28;20052;-70
2023/08/07 02:46:19;;;;;;;0.00;0.00;;;15.50;99.90;;;;;;5040115;28;20037;-70
2023/08/07 02:48:45;;;;;;;0.00;0.00;;;15.50;99.90;;;;;;5035770;28;20130;-70
2023/08/07 02:51:10;;;;;;;5.43;0.25;;;15.60;99.90;;;;;;5036913;28;20081;-69
2023/08/07 02:53:36;;;;;;;0.32;0.32;;;15.60;99.90;;;;;;5039515;28;20040;-70
2023/08/07 02:56:01;;;;;;;1.15;0.90;;;15.60;99.90;;;;;;5034935;28;20064;-70
2023/08/07 02:58:27;;;;;;;0.25;0.25;;;15.60;99.90;;;;;;5038245;28;20176;-70
2023/08/07 03:00:53;;;;;;;0.10;0.10;;;15.60;99.90;;;;;;5015654;28;20045;-70
2023/08/07 03:03:18;;;;;;;0.25;0.25;;;15.60;99.90;;;;;;5039533;28;20038;-70
2023/08/07 03:05:51;;;;;;;0.00;0.00;;;15.60;99.90;;;;;;5035643;28;20605;-70
2023/08/07 03:08:17;;;;;;;4.20;0.77;;;15.60;99.90;;;;;;5026358;28;20503;-69
2023/08/07 03:10:49;;;;;;;0.00;0.00;;;15.50;99.90;;;;;;5045126;28;20160;-70
2023/08/07 03:13:15;;;;;;;0.90;0.83;;;15.50;99.90;;;;;;5036965;28;20052;-70
2023/08/07 03:15:40;;;;;;;3.30;1.08;;;15.50;99.90;;;;;;5039957;28;20032;-70
2023/08/07 03:18:06;;;;;;;0.00;0.00;;;15.50;99.90;;;;;;5035787;28;20128;-70
2023/08/07 03:20:32;;;;;;;0.00;0.00;;;15.50;99.90;;;;;;5036909;28;20053;-70
2023/08/07 03:22:57;;;;;;;0.10;0.10;;;15.50;99.90;;;;;;5035022;28;20518;-70
2023/08/07 03:25:23;;;;;;;0.00;0.00;;;15.50;99.90;;;;;;5043502;28;20041;-70
2023/08/07 03:27:48;;;;;;;0.00;0.00;;;15.50;99.90;;;;;;5045909;28;20040;-70
2023/08/07 03:30:14;;;;;;;0.00;0.00;;;15.50;99.90;;;;;;5043450;28;20400;-70
2023/08/07 03:32:41;;;;;;;0.00;0.00;;;15.50;99.90;;;;;;5037125;28;20072;-70
2023/08/07 03:35:07;;;;;;;0.03;0.03;;;15.50;99.90;;;;;;5040148;28;20057;-69
2023/08/07 03:37:33;;;;;;;0.75;0.75;;;15.50;99.90;;;;;;5043599;28;20079;-70
2023/08/07 03:39:58;;;;;;;0.10;0.10;;;15.50;99.90;;;;;;5035032;28;20081;-69
2023/08/07 03:42:24;;;;;;;0.00;0.00;;;15.40;99.90;;;;;;5046279;28;20044;-70
2023/08/07 03:44:49;;;;;;;0.40;0.40;;;15.40;99.90;;;;;;5034435;28;20528;-70
2023/08/07 03:47:15;;;;;;;1.08;0.40;;;15.40;99.90;;;;;;5043507;28;20049;-70
2023/08/07 03:49:41;;;;;;;0.40;0.40;;;15.40;99.90;;;;;;5032972;28;20037;-70
2023/08/07 03:52:06;;;;;;;0.65;0.52;;;15.40;99.90;;;;;;5034472;28;20056;-71
2023/08/07 03:54:32;;;;;;;0.10;0.10;;;15.30;99.90;;;;;;5043251;28;20705;-71
2023/08/07 03:56:58;;;;;;;0.32;0.32;;;15.30;99.90;;;;;;5026760;28;20045;-72
2023/08/07 03:59:23;;;;;;;0.10;0.10;;;15.20;99.90;;;;;;5035835;28;20461;-71
2023/08/07 04:01:49;;;;;;;0.15;0.15;;;15.20;99.90;;;;;;5031459;28;20045;-70
2023/08/07 04:04:14;;;;;;;0.00;0.00;;;15.20;99.90;;;;;;5042630;28;20053;-70
2023/08/07 04:06:40;;;;;;;0.13;0.13;;;15.20;99.90;;;;;;5035303;28;20481;-70
2023/08/07 04:09:06;;;;;;;0.08;0.08;;;15.30;99.90;;;;;;5042569;28;20128;-70
2023/08/07 04:11:33;;;;;;;0.00;0.00;;;15.20;99.90;;;;;;5046510;28;20049;-70
2023/08/07 04:13:59;;;;;;;0.20;0.20;;;15.30;99.90;;;;;;5035961;28;20076;-70
2023/08/07 04:16:24;;;;;;;0.20;0.20;;;15.20;99.90;;;;;;5037412;28;20040;-70
2023/08/07 04:18:51;;;;;;;21.02;2.40;;;15.20;99.90;;;;;;5018834;28;21254;-69
2023/08/07 04:21:16;;;;;;;0.00;0.00;;;15.20;99.90;;;;;;5038509;28;20100;-69
2023/08/07 04:23:42;;;;;;;0.00;0.00;;;15.20;99.90;;;;;;5044497;28;20951;-70
2023/08/07 04:26:08;;;;;;;0.13;0.13;;;15.20;99.90;;;;;;5041429;28;20048;-69
2023/08/07 04:28:33;;;;;;;0.47;0.47;;;15.20;99.90;;;;;;5043364;28;20489;-69
2023/08/07 04:30:59;;;;;;;0.00;0.00;;;15.20;99.90;;;;;;5042534;28;20439;-69
2023/08/07 04:33:24;;;;;;;6.00;0.52;;;15.20;99.90;;;;;;5036153;28;20489;-69
2023/08/07 04:35:50;;;;;;;0.00;0.00;;;15.20;99.90;;;;;;5040371;28;20065;-70
2023/08/07 04:38:16;;;;;;;0.00;0.00;;;15.10;99.90;;;;;;5038813;28;20378;-70
2023/08/07 04:40:46;;;;;;;2.80;0.45;;;15.20;99.90;;;;;;5022706;28;20056;-69
2023/08/07 04:43:17;;;;;;;0.50;0.50;;;15.20;99.90;;;;;;5039545;28;20053;-70
2023/08/07 04:45:44;;;;;;;0.00;0.00;;;15.20;99.90;;;;;;5036939;28;20033;-70
2023/08/07 04:48:11;;;;;;;0.10;0.10;;;15.10;99.90;;;;;;5032987;28;20049;-70
2023/08/07 04:50:37;;;;;;;0.00;0.00;;;15.10;99.90;;;;;;5026064;28;20080;-70
2023/08/07 04:53:03;;;;;;;0.52;0.52;;;15.00;99.90;;;;;;5039830;28;20048;-69
2023/08/07 04:55:29;;;;;;;0.00;0.00;;;15.10;99.90;;;;;;5041881;28;20087;-70
2023/08/07 04:57:56;;;;;;;0.00;0.00;;;15.10;99.90;;;;;;5043850;28;20044;-70
2023/08/07 05:00:22;;;;;;;0.00;0.00;;;15.10;99.90;;;;;;5033694;28;20812;-70
2023/08/07 05:02:50;;;;;;;0.10;0.10;;;15.10;99.90;;;;;;5033185;28;20599;-70
2023/08/07 05:05:19;;;;;;;0.15;0.15;;;15.10;99.90;;;;;;5040893;28;20037;-70
2023/08/07 05:07:44;;;;;;;0.00;0.00;;;15.10;99.90;;;;;;5046539;28;20049;-70
2023/08/07 05:10:10;;;;;;;2.03;0.82;;;15.10;99.90;;;;;;5021885;28;20072;-70
2023/08/07 05:12:36;;;;;;;0.00;0.00;;;15.10;99.90;;;;;;5030526;28;20049;-70
2023/08/07 05:15:01;;;;;;;0.00;0.00;;;15.10;99.90;;;;;;5038643;28;20542;-68
2023/08/07 05:17:27;;;;;;;0.00;0.00;;;15.10;99.90;;;;;;5032878;28;20068;-69
2023/08/07 05:19:53;;;;;;;0.00;0.00;;;15.10;99.90;;;;;;5028029;28;20073;-69
2023/08/07 05:22:18;;;;;;;0.30;0.30;;;15.00;99.90;;;;;;5031490;28;20079;-69
2023/08/07 05:24:45;;;;;;;1.02;0.55;;;15.00;99.90;;;;;;5035238;28;20033;-69
2023/08/07 05:27:11;;;;;;;0.73;0.20;;;15.10;99.90;;;;;;5033460;28;20095;-69
2023/08/07 05:29:43;;;;;;;0.00;0.00;;;15.10;99.90;;;;;;5035887;28;20045;-70
2023/08/07 05:32:10;;;;;;;4.15;0.82;;;15.10;99.90;;;;;;5022340;28;20431;-70
2023/08/07 05:34:36;;;;;;;0.00;0.00;;;15.10;99.90;;;;;;5020474;28;20378;-70
2023/08/07 05:37:01;;;;;;;0.25;0.25;;;15.10;99.90;;;;;;5040097;28;20045;-70
2023/08/07 05:39:27;;;;;;;0.00;0.00;;;15.10;99.90;;;;;;5018615;28;20105;-70
2023/08/07 05:41:54;;;;;;;1.00;0.85;;;15.10;99.90;;;;;;5030136;28;20515;-70
2023/08/07 05:44:20;;;;;;;0.30;0.30;;;15.20;99.90;;;;;;5023317;28;20060;-70
2023/08/07 05:46:45;;;;;;;0.03;0.03;;;15.20;99.90;;;;;;5037269;28;20042;-69
2023/08/07 05:49:11;;;;;;;0.75;0.30;;;15.20;99.90;;;;;;5021381;28;20081;-69
2023/08/07 05:51:37;;;;;;;0.03;0.03;;;15.20;99.90;;;;;;5033843;28;20059;-70
2023/08/07 05:54:02;;;;;;;0.00;0.00;;;15.20;99.90;;;;;;5036212;28;20044;-70
2023/08/07 05:56:28;;;;;;;0.43;0.43;;;15.20;99.90;;;;;;5036287;28;20144;-69
2023/08/07 05:58:54;;;;;;;5.18;0.82;;;15.20;99.90;;;;;;5030911;28;20053;-70
2023/08/07 06:01:19;;;;;;;1.08;0.90;;;15.20;99.90;;;;;;5034215;28;20049;-70
2023/08/07 06:03:45;;;;;;;0.00;0.00;;;15.20;99.90;;;;;;5022651;28;20052;-70
2023/08/07 06:06:11;;;;;;;0.10;0.10;;;15.20;99.90;;;;;;5034171;28;20041;-70
2023/08/07 06:08:36;;;;;;;0.45;0.40;;;15.20;99.90;;;;;;5038694;28;20687;-70
2023/08/07 06:11:03;;;;;;;2.53;1.08;;;15.20;99.90;;;;;;5035106;28;20041;-70
2023/08/07 06:13:29;;;;;;;0.15;0.15;;;15.20;99.90;;;;;;5034579;28;20739;-70
2023/08/07 06:15:54;;;;;;;0.00;0.00;;;15.30;99.90;;;;;;5030462;28;20103;-70
2023/08/07 06:18:20;;;;;;;0.10;0.10;;;15.30;99.90;;;;;;5031144;28;20041;-70
2023/08/07 06:20:46;;;;;;;0.00;0.00;;;15.30;99.90;;;;;;5041802;28;20049;-70
2023/08/07 06:23:12;;;;;;;0.17;0.17;;;15.40;99.90;;;;;;5015716;28;20042;-70
2023/08/07 06:25:38;;;;;;;0.13;0.13;;;15.30;99.90;;;;;;5025732;28;20495;-70
2023/08/07 06:28:04;;;;;;;0.28;0.28;;;15.40;99.90;;;;;;5027288;28;20053;-70
2023/08/07 06:30:31;;;;;;;0.10;0.10;;;15.50;99.90;;;;;;5043196;28;20052;-70
2023/08/07 06:32:56;;;;;;;0.03;0.03;;;15.60;99.90;;;;;;5038545;28;20353;-71
2023/08/07 06:35:22;;;;;;;0.05;0.05;;;15.60;99.90;;;;;;5024048;28;20135;-70
2023/08/07 06:37:48;;;;;;;0.20;0.20;;;15.60;99.90;;;;;;5048143;28;20106;-69
2023/08/07 06:40:14;;;;;;;0.30;0.30;;;15.60;99.90;;;;;;5041594;28;20079;-69
2023/08/07 06:42:39;;;;;;;0.57;0.47;;;15.60;99.90;;;;;;5046139;28;20048;-70
2023/08/07 06:45:06;;;;;;;1.08;0.38;;;15.70;99.90;;;;;;5026353;28;20074;-70
2023/08/07 06:47:32;;;;;;;2.10;1.95;;;15.70;99.90;;;;;;5035736;28;20112;-70
2023/08/07 06:49:57;;;;;;;0.10;0.10;;;15.60;99.90;;;;;;5042673;28;20044;-70
2023/08/07 06:52:23;;;;;;;1.08;0.43;;;15.30;99.90;;;;;;5045982;28;20040;-70
2023/08/07 06:54:48;;;;;;;0.70;0.65;;;15.30;99.90;;;;;;5035762;28;20045;-71
2023/08/07 06:57:14;;;;;;;0.05;0.05;;;15.20;99.90;;;;;;5048293;28;20129;-70
2023/08/07 06:59:40;;;;;;;0.20;0.20;;;15.20;99.90;;;;;;5036538;28;20041;-70
2023/08/07 07:02:06;;;;;;;2.00;0.20;;;15.20;99.90;;;;;;5041949;28;20396;-69
2023/08/07 07:04:32;;;;;;;0.00;0.00;;;15.20;99.90;;;;;;5040632;28;20124;-69
2023/08/07 07:06:58;;;;;;;0.00;0.00;;;15.20;99.90;;;;;;5046577;28;20041;-70
2023/08/07 07:09:24;;;;;;;0.55;0.55;;;15.20;99.90;;;;;;5022035;28;20538;-69
2023/08/07 07:11:50;;;;;;;0.10;0.10;;;15.20;99.90;;;;;;5040865;28;20030;-70
2023/08/07 07:14:16;;;;;;;0.00;0.00;;;15.40;99.90;;;;;;5045571;28;20040;-70
2023/08/07 07:16:42;;;;;;;0.00;0.00;;;15.50;99.90;;;;;;5024192;28;20053;-69
2023/08/07 07:19:09;;;;;;;0.30;0.30;;;15.70;99.90;;;;;;5044440;28;20068;-70
2023/08/07 07:21:35;;;;;;;0.00;0.00;;;15.70;99.90;;;;;;5043605;28;20403;-70
2023/08/07 07:24:02;;;;;;;1.90;1.45;;;15.70;99.90;;;;;;5038040;28;20132;-70
2023/08/07 07:26:27;;;;;;;0.00;0.00;;;15.80;99.90;;;;;;5037952;28;20388;-70
2023/08/07 07:28:53;;;;;;;0.00;0.00;;;15.80;99.90;;;;;;5019981;28;20111;-70
2023/08/07 07:31:18;;;;;;;0.00;0.00;;;15.70;99.90;;;;;;5046098;28;20455;-70
2023/08/07 07:33:44;;;;;;;0.10;0.10;;;15.50;99.90;;;;;;5020101;28;20124;-70
2023/08/07 07:36:20;;;;;;;0.98;0.25;;;15.40;99.90;;;;;;5045194;28;20068;-71
2023/08/07 07:38:47;;;;;;;0.10;0.10;;;15.20;99.90;;;;;;5037249;28;20049;-70
2023/08/07 07:41:13;;;;;;;0.10;0.10;;;15.20;99.90;;;;;;5024383;28;20041;-70
2023/08/07 07:43:39;;;;;;;0.10;0.10;;;15.20;99.90;;;;;;5039988;28;20102;-70
2023/08/07 07:46:05;;;;;;;1.65;1.45;;;15.20;99.90;;;;;;5043107;28;20481;-70
2023/08/07 07:48:30;;;;;;;4.10;2.05;;;15.30;99.90;;;;;;5031809;28;20072;-70
2023/08/07 07:51:00;;;;;;;0.35;0.35;;;15.40;99.90;;;;;;5022548;28;20485;-70
2023/08/07 07:53:26;;;;;;;0.28;0.28;;;15.40;99.90;;;;;;5039321;28;20053;-71
2023/08/07 07:55:53;;;;;;;0.08;0.08;;;15.40;99.90;;;;;;5041680;28;20393;-71
2023/08/07 07:58:20;;;;;;;0.00;0.00;;;15.40;99.90;;;;;;5036264;28;20053;-72
2023/08/07 08:00:46;;;;;;;0.00;0.00;;;15.50;99.90;;;;;;5030565;28;20432;-71
2023/08/07 08:03:12;;;;;;;0.40;0.40;;;15.50;99.90;;;;;;5037799;28;20049;-70
2023/08/07 08:05:38;;;;;;;0.00;0.00;;;15.70;99.90;;;;;;5043559;28;20039;-69
2023/08/07 08:08:04;;;;;;;1.40;1.20;;;15.70;99.90;;;;;;5036379;28;20064;-70
2023/08/07 08:10:30;;;;;;;0.20;0.20;;;15.80;99.90;;;;;;5019170;28;20042;-70
2023/08/07 08:12:56;;;;;;;0.20;0.20;;;15.80;99.90;;;;;;5037589;28;20051;-69
2023/08/07 08:15:22;;;;;;;0.10;0.10;;;15.90;99.90;;;;;;5036352;28;20045;-69
2023/08/07 08:17:48;;;;;;;0.00;0.00;;;15.90;99.90;;;;;;5036648;28;20037;-69
2023/08/07 08:20:23;;;;;;;0.30;0.30;;;16.00;99.90;;;;;;5043154;28;20061;-69
2023/08/07 08:22:48;;;;;;;0.00;0.00;;;16.00;99.90;;;;;;5027493;28;20827;-71
2023/08/07 08:25:14;;;;;;;0.15;0.15;;;16.10;99.90;;;;;;5025347;28;20069;-70
2023/08/07 08:27:40;;;;;;;0.20;0.20;;;16.10;99.90;;;;;;5042918;28;20044;-70
2023/08/07 08:30:06;;;;;;;1.38;1.27;;;16.20;99.90;;;;;;5040548;28;20042;-70
2023/08/07 08:32:32;;;;;;;0.00;0.00;;;16.30;99.90;;;;;;5040287;28;20500;-69
2023/08/07 08:34:58;;;;;;;9.35;1.08;;;16.40;99.90;;;;;;5040384;28;20037;-69
2023/08/07 08:37:24;;;;;;;1.95;1.45;;;16.30;99.90;;;;;;5042678;28;20037;-69
2023/08/07 08:39:50;;;;;;;0.68;0.50;;;16.30;99.90;;;;;;5032724;28;20037;-69
2023/08/07 08:42:17;;;;;;;0.40;0.40;;;16.40;99.90;;;;;;5045188;28;20037;-69
2023/08/07 08:44:52;;;;;;;0.08;0.08;;;16.40;99.90;;;;;;5043199;28;20049;-69
2023/08/07 08:47:18;;;;;;;0.60;0.50;;;16.60;99.90;;;;;;5047161;28;20131;-68
2023/08/07 08:49:49;;;;;;;0.00;0.00;;;16.70;99.90;;;;;;5032872;28;20357;-69
2023/08/07 08:52:16;;;;;;;0.03;0.03;;;16.80;99.90;;;;;;5040940;28;20097;-69
2023/08/07 08:54:42;;;;;;;0.05;0.05;;;17.00;99.90;;;;;;5039734;28;20037;-69
2023/08/07 08:57:09;;;;;;;0.00;0.00;;;16.90;99.90;;;;;;5039620;28;20056;-69
2023/08/07 08:59:34;;;;;;;0.00;0.00;;;17.00;99.90;;;;;;5039500;28;20045;-69
2023/08/07 09:02:00;;;;;;;2.28;1.67;;;17.00;99.90;;;;;;5039254;28;20041;-69
2023/08/07 09:04:26;;;;;;;2.08;0.65;;;17.00;99.90;;;;;;5040868;28;20090;-70
2023/08/07 09:06:52;;;;;;;0.70;0.57;;;16.80;99.90;;;;;;5037075;28;20068;-70
2023/08/07 09:09:21;;;;;;;0.00;0.00;;;16.80;99.90;;;;;;5043948;28;20132;-70
2023/08/07 09:11:47;;;;;;;0.00;0.00;;;16.90;99.90;;;;;;5038565;28;20818;-69
2023/08/07 09:14:16;;;;;;;0.10;0.10;;;17.00;99.90;;;;;;5029578;28;20044;-70
2023/08/07 09:16:47;;;;;;;0.08;0.08;;;17.00;99.90;;;;;;5038919;28;20136;-70
2023/08/07 09:19:13;;;;;;;0.20;0.20;;;16.80;99.90;;;;;;5044971;28;20075;-70
2023/08/07 09:21:39;;;;;;;0.20;0.20;;;17.00;99.90;;;;;;5024994;28;20087;-71
2023/08/07 09:24:05;;;;;;;0.10;0.10;;;17.10;99.90;;;;;;5046906;28;20115;-71
2023/08/07 09:26:32;;;;;;;0.22;0.22;;;17.40;99.90;;;;;;5043432;28;20033;-70
2023/08/07 09:28:59;;;;;;;0.10;0.10;;;17.50;99.90;;;;;;5043124;28;20067;-70
2023/08/07 09:31:30;;;;;;;0.17;0.17;;;17.40;99.90;;;;;;5044253;28;20033;-70
2023/08/07 09:34:04;;;;;;;3.40;0.30;;;17.30;99.90;;;;;;5039521;28;20076;-70
2023/08/07 09:36:34;;;;;;;0.10;0.10;;;17.10;99.90;;;;;;5040879;28;20044;-70
2023/08/07 09:39:03;;;;;;;0.28;0.28;;;17.00;99.90;;;;;;5026833;28;20127;-70
2023/08/07 09:41:30;;;;;;;0.20;0.15;;;17.00;99.90;;;;;;5039405;28;20055;-71
2023/08/07 09:43:57;;;;;;;0.00;0.00;;;17.00;99.90;;;;;;5026495;28;20048;-71
2023/08/07 09:46:25;;;;;;;0.00;0.00;;;17.10;99.90;;;;;;5040256;28;20045;-71
2023/08/07 09:48:50;;;;;;;0.88;0.80;;;17.60;99.90;;;;;;5042710;28;20106;-71
2023/08/07 09:51:16;;;;;;;0.00;0.00;;;18.30;99.90;;;;;;5037268;28;20504;-71
2023/08/07 09:53:42;;;;;;;0.20;0.20;;;18.80;99.90;;;;;;5043962;28;20040;-70
2023/08/07 09:56:07;;;;;;;0.22;0.22;;;19.30;99.90;;;;;;5043450;28;20063;-69
2023/08/07 09:58:33;;;;;;;2.72;0.70;;;19.50;99.90;;;;;;5041055;28;20052;-69
2023/08/07 10:01:00;;;;;;;0.00;0.00;;;19.40;99.90;;;;;;5043899;28;20044;-70
2023/08/07 10:03:26;;;;;;;0.10;0.10;;;19.30;99.90;;;;;;5023844;28;20080;-69
2023/08/07 10:05:52;;;;;;;0.00;0.00;;;19.20;99.90;;;;;;5036753;28;20403;-70
2023/08/07 10:08:18;;;;;;;0.00;0.00;;;18.90;99.90;;;;;;5041499;28;20041;-70
2023/08/07 10:10:46;;;;;;;0.00;0.00;;;18.60;99.90;;;;;;5025168;28;20047;-70
2023/08/07 10:13:13;;;;;;;0.85;0.35;;;18.80;99.90;;;;;;5028955;28;20069;-70
2023/08/07 10:15:42;;;;;;;9.40;0.68;;;19.20;99.90;;;;;;5045649;28;20047;-70
2023/08/07 10:18:09;;;;;;;0.03;0.03;;;19.20;99.90;;;;;;5046333;28;20526;-70
2023/08/07 10:20:35;;;;;;;0.80;0.30;;;19.10;99.90;;;;;;5047816;28;20049;-71
2023/08/07 10:23:08;;;;;;;0.00;0.00;;;19.10;99.90;;;;;;5045346;28;20073;-70
2023/08/07 10:25:35;;;;;;;;;;;18.90;99.90;;;;;;5042255;28;20045;-71
2023/08/07 10:28:03;;;;;;;0.00;0.00;;;19.10;99.90;;;;;;5029861;28;20327;-70
2023/08/07 10:30:30;;;;;;;0.88;0.65;;;19.50;99.90;;;;;;5041857;28;20809;-72
2023/08/07 10:32:58;;;;;;;0.10;0.10;;;19.70;99.90;;;;;;5045685;28;20047;-71
2023/08/07 10:35:31;;;;;;;0.00;0.00;;;20.00;99.90;;;;;;5027716;28;20052;-71
2023/08/07 10:38:07;;;;;;;0.73;0.73;;;20.10;99.90;;;;;;5044670;28;20037;-71
2023/08/07 10:40:32;;;;;;;0.00;0.00;;;20.10;99.90;;;;;;5038231;28;20131;-72
2023/08/07 10:43:07;;;;;;;0.17;0.17;;;20.20;99.90;;;;;;5050836;28;20140;-73
2023/08/07 10:45:34;;;;;;;0.00;0.00;;;20.40;99.90;;;;;;5028186;28;20051;-72
2023/08/07 10:48:09;;;;;;;0.10;0.10;;;20.30;99.90;;;;;;5030963;28;20061;-71
2023/08/07 10:50:49;;;;;;;0.10;0.10;;;20.10;99.90;;;;;;5041851;28;20052;-72
2023/08/07 10:53:31;;;;;;;0.10;0.10;;;19.80;99.90;;;;;;5046733;28;20052;-70
2023/08/07 10:56:11;;;;;;;0.00;0.00;;;19.80;99.90;;;;;;5033234;28;20209;-71
2023/08/07 10:58:38;;;;;;;1.45;0.52;;;20.00;99.90;;;;;;5026401;28;20056;-72
2023/08/07 11:01:22;;;;;;;0.73;0.52;;;19.90;99.90;;;;;;5026572;28;20056;-71
2023/08/07 11:04:05;;;;;;;0.35;0.32;;;19.70;99.90;;;;;;5021986;28;20053;-71
2023/08/07 11:06:33;;;;;;;0.55;0.55;;;19.70;99.90;;;;;;5040002;28;20068;-71
2023/08/07 11:09:04;;;;;;;0.98;0.73;;;19.70;99.90;;;;;;5039672;28;20436;-71
2023/08/07 11:11:42;;;;;;;0.03;0.03;;;19.60;99.90;;;;;;5046482;28;20392;-71
2023/08/07 11:14:13;;;;;;;0.00;0.00;;;19.30;99.90;;;;;;5044756;28;20053;-71
2023/08/07 11:16:38;;;;;;;0.35;0.35;;;19.10;99.90;;;;;;5024427;28;20079;-72
2023/08/07 11:19:05;;;;;;;0.55;0.55;;;18.90;99.90;;;;;;5046955;28;20132;-71
2023/08/07 11:21:34;;;;;;;0.30;0.28;;;18.80;99.90;;;;;;5044455;28;20090;-71
2023/08/07 11:24:00;;;;;;;0.38;0.35;;;18.80;99.90;;;;;;5045581;28;20139;-71
2023/08/07 11:26:27;;;;;;;0.28;0.28;;;18.70;99.90;;;;;;5046887;28;20523;-71
2023/08/07 11:28:54;;;;;;;0.00;0.00;;;18.40;99.90;;;;;;5025411;28;20041;-71
2023/08/07 11:31:19;;;;;;;0.00;0.00;;;18.20;99.90;;;;;;5032873;28;20064;-70
2023/08/07 11:33:45;;;;;;;0.10;0.10;;;18.10;99.90;;;;;;5046320;28;20037;-71
2023/08/07 11:36:12;;;;;;;0.00;0.00;;;17.90;99.90;;;;;;5043887;28;20108;-70
2023/08/07 11:38:44;;;;;;;0.28;0.28;;;17.60;99.90;;;;;;5050343;28;20072;-71
2023/08/07 11:41:11;;;;;;;0.73;0.73;;;17.60;99.90;;;;;;5024067;28;20049;-71
2023/08/07 11:43:37;;;;;;;0.35;0.35;;;17.40;99.90;;;;;;5046644;28;20041;-71
2023/08/07 11:46:05;;;;;;;0.00;0.00;;;17.40;99.90;;;;;;5026860;28;20405;-71
2023/08/07 11:48:33;;;;;;;0.10;0.10;;;17.50;99.90;;;;;;5042320;28;20075;-71
2023/08/07 11:50:59;;;;;;;0.32;0.32;;;17.90;99.90;;;;;;5026266;28;20493;-71
2023/08/07 11:53:27;;;;;;;0.00;0.00;;;18.20;99.90;;;;;;5044178;28;20400;-71
2023/08/07 11:56:05;;;;;;;0.00;0.00;;;18.10;99.90;;;;;;5039482;28;20125;-71
2023/08/07 11:58:35;;;;;;;0.05;0.05;;;18.00;99.90;;;;;;5042153;28;20428;-71
2023/08/07 12:01:10;;;;;;;0.20;0.20;;;18.00;99.90;;;;;;5050696;28;20125;-72
2023/08/07 12:03:40;;;;;;;0.10;0.10;;;18.00;99.90;;;;;;5044077;28;20048;-71
2023/08/07 12:06:07;;;;;;;0.00;0.00;;;18.20;99.90;;;;;;5048146;28;20052;-71
2023/08/07 12:08:36;;;;;;;0.00;0.00;;;18.70;99.90;;;;;;5040408;28;20048;-71
2023/08/07 12:11:06;;;;;;;0.00;0.00;;;18.90;99.90;;;;;;5041938;28;20098;-71
2023/08/07 12:13:35;;;;;;;0.17;0.17;;;18.70;99.90;;;;;;5044742;28;20435;-71
2023/08/07 12:16:03;;;;;;;0.25;0.25;;;18.80;99.90;;;;;;5038104;28;20058;-71
2023/08/07 12:18:30;;;;;;;0.00;0.00;;;18.70;99.90;;;;;;5020025;28;20080;-70
2023/08/07 12:21:00;;;;;;;0.63;0.20;;;18.80;99.90;;;;;;5046299;28;20029;-71
2023/08/07 12:23:27;;;;;;;0.10;0.10;;;18.90;99.90;;;;;;5024353;28;20045;-69
2023/08/07 12:25:53;;;;;;;1.48;0.77;;;18.80;99.90;;;;;;5040813;28;20064;-70
2023/08/07 12:28:19;;;;;;;0.00;0.00;;;18.90;99.90;;;;;;5044835;28;20045;-70
2023/08/07 12:30:48;;;;;;;0.00;0.00;;;19.10;99.90;;;;;;5042258;28;20256;-70
2023/08/07 12:33:14;;;;;;;0.30;0.30;;;19.20;99.90;;;;;;5043520;28;20071;-70
2023/08/07 12:35:41;;;;;;;1.50;0.88;;;19.00;99.90;;;;;;5047366;28;20045;-70
2023/08/07 12:38:08;;;;;;;0.25;0.13;;;18.90;99.90;;;;;;5040729;28;20072;-70
2023/08/07 12:40:36;;;;;;;0.00;0.00;;;18.80;99.90;;;;;;5045334;28;20476;-69
2023/08/07 12:43:02;;;;;;;0.43;0.40;;;18.70;99.90;;;;;;5046417;28;20049;-69
2023/08/07 12:45:27;;;;;;;0.00;0.00;;;18.60;99.90;;;;;;5045381;28;20053;-67
2023/08/07 12:47:53;;;;;;;0.00;0.00;;;18.60;99.90;;;;;;5037220;28;20544;-67